PWSweather.com
Personal Weather Stations
Station Observations
METEOC500
Santo Antonio, FunchalPT 2020

Santo AntonioFunchalPT 2020

Lat: 32.678227, Lon: -16.945054

Elevation: 1669.94751

Station Type: WH Series

Latest ConditionsUpdated 5:55:04 PM GMT Sunday, Jan 26, 2020
Currently Today's Max Today's Min Today's Average
Temperature 57.9°F14.4°C 61.2°F16.2°C 50.5°F10.3°C 55.1°F12.8°C
Dew Point 50.7°F10.4°C 52.3°F11.3°C 40.3°F4.6°C 46.2°F7.9°C
Winds 0.9 mph S1.4 kmh S 9.4 mph -15.1 kmh - - 5.2 mph 8.4 kmh
Wind Gusts 10.1 mph16.3 kmh 15.0 mph24.1 kmh - -
Humidity 77% 83% 60% 72%
Pressure 30.23 in1023.7 mb 30.30 in1026.1 mb 30.22 in1023.4 mb -
Hour Temp Dew Point Humidity Winds Wind Gusts Pressure Precip Precip Rate Daily Precip Total
05:55 PM 57.9°F14.4°C 50.7°F10.4°C 77% 0.9 mph S1.4 kmh S 10.1 mph16.3 kmh 30.23 in1023.7 mb 0.00 in0.0 mm 0.00 in0.0 mm 0.00 in0.0 mm
05:40 PM 57.9°F14.4°C 50.7°F10.4°C 77% 1.6 mph S2.6 kmh S 10.1 mph16.3 kmh 30.23 in1023.7 mb 0.00 in0.0 mm 0.00 in0.0 mm 0.00 in0.0 mm
05:24 PM 58.3°F14.6°C 51.4°F10.8°C 78% 2.5 mph S4.0 kmh S 10.1 mph16.3 kmh 30.23 in1023.7 mb 0.00 in0.0 mm 0.00 in0.0 mm 0.00 in0.0 mm
05:09 PM 59.0°F15.0°C 51.8°F11.0°C 77% 5.6 mph SE9.0 kmh SE 10.1 mph16.3 kmh 30.23 in1023.7 mb 0.00 in0.0 mm 0.00 in0.0 mm 0.00 in0.0 mm
04:54 PM 59.9°F15.5°C 51.6°F10.9°C 74% 6.9 mph ESE11.1 kmh ESE 12.5 mph20.1 kmh 30.23 in1023.7 mb 0.00 in0.0 mm 0.00 in0.0 mm 0.00 in0.0 mm
04:39 PM 60.1°F15.6°C 51.4°F10.8°C 73% 6.5 mph SE10.5 kmh SE 12.5 mph20.1 kmh 30.22 in1023.4 mb 0.00 in0.0 mm 0.00 in0.0 mm 0.00 in0.0 mm
04:24 PM 59.7°F15.4°C 51.1°F10.6°C 73% 6.5 mph SE10.5 kmh SE 15.0 mph24.1 kmh 30.22 in1023.4 mb 0.00 in0.0 mm 0.00 in0.0 mm 0.00 in0.0 mm
04:09 PM 59.7°F15.4°C 50.0°F10.0°C 70% 3.1 mph SW5.0 kmh SW 15.0 mph24.1 kmh 30.22 in1023.4 mb 0.00 in0.0 mm 0.00 in0.0 mm 0.00 in0.0 mm
03:54 PM 59.4°F15.2°C 51.4°F10.8°C 75% 3.1 mph SW5.0 kmh SW 12.5 mph20.1 kmh 30.22 in1023.4 mb 0.00 in0.0 mm 0.00 in0.0 mm 0.00 in0.0 mm
03:39 PM 59.2°F15.1°C 51.3°F10.7°C 75% 6.3 mph SSE10.1 kmh SSE 12.5 mph20.1 kmh 30.22 in1023.4 mb 0.00 in0.0 mm 0.00 in0.0 mm 0.00 in0.0 mm
03:24 PM 59.5°F15.3°C 52.3°F11.3°C 77% 5.4 mph SE8.7 kmh SE 15.0 mph24.1 kmh 30.22 in1023.4 mb 0.00 in0.0 mm 0.00 in0.0 mm 0.00 in0.0 mm
03:09 PM 59.0°F15.0°C 51.1°F10.6°C 75% 3.4 mph S5.5 kmh S 12.5 mph20.1 kmh 30.22 in1023.4 mb 0.00 in0.0 mm 0.00 in0.0 mm 0.00 in0.0 mm
02:54 PM 57.9°F14.4°C 50.0°F10.0°C 75% 3.8 mph S6.1 kmh S 10.1 mph16.3 kmh 30.22 in1023.4 mb 0.00 in0.0 mm 0.00 in0.0 mm 0.00 in0.0 mm
02:39 PM 57.9°F14.4°C 51.1°F10.6°C 78% 4.9 mph ESE7.9 kmh ESE 10.1 mph16.3 kmh 30.23 in1023.7 mb 0.00 in0.0 mm 0.00 in0.0 mm 0.00 in0.0 mm
02:24 PM 58.5°F14.7°C 50.5°F10.3°C 75% 2.9 mph SSE4.7 kmh SSE 7.6 mph12.2 kmh 30.24 in1024.0 mb 0.00 in0.0 mm 0.00 in0.0 mm 0.00 in0.0 mm
02:09 PM 59.2°F15.1°C 50.9°F10.5°C 74% 3.1 mph S5.0 kmh S 7.6 mph12.2 kmh 30.24 in1024.0 mb 0.00 in0.0 mm 0.00 in0.0 mm 0.00 in0.0 mm
01:53 PM 60.4°F15.8°C 52.2°F11.2°C 74% 0.9 mph SSE1.4 kmh SSE 10.1 mph16.3 kmh 30.24 in1024.0 mb 0.00 in0.0 mm 0.00 in0.0 mm 0.00 in0.0 mm
01:38 PM 61.0°F16.1°C 51.1°F10.6°C 70% 5.6 mph SE9.0 kmh SE 10.1 mph16.3 kmh 30.25 in1024.4 mb 0.00 in0.0 mm 0.00 in0.0 mm 0.00 in0.0 mm
01:23 PM 60.8°F16.0°C 50.9°F10.5°C 70% 3.4 mph S5.5 kmh S 12.5 mph20.1 kmh 30.26 in1024.7 mb 0.00 in0.0 mm 0.00 in0.0 mm 0.00 in0.0 mm
01:08 PM 61.2°F16.2°C 52.0°F11.1°C 72% 7.6 mph S12.2 kmh S 12.5 mph20.1 kmh 30.26 in1024.7 mb 0.00 in0.0 mm 0.00 in0.0 mm 0.00 in0.0 mm
12:53 PM 60.6°F15.9°C 49.6°F9.8°C 67% 4.7 mph SSE7.6 kmh SSE 12.5 mph20.1 kmh 30.28 in1025.4 mb 0.00 in0.0 mm 0.00 in0.0 mm 0.00 in0.0 mm
12:38 PM 59.5°F15.3°C 50.2°F10.1°C 71% 3.4 mph SE5.5 kmh SE 12.5 mph20.1 kmh 30.28 in1025.4 mb 0.00 in0.0 mm 0.00 in0.0 mm 0.00 in0.0 mm
12:23 PM 59.7°F15.4°C 50.7°F10.4°C 72% 5.4 mph ESE8.7 kmh ESE 10.1 mph16.3 kmh 30.29 in1025.7 mb 0.00 in0.0 mm 0.00 in0.0 mm 0.00 in0.0 mm
12:08 PM 59.9°F15.5°C 48.6°F9.2°C 66% 7.6 mph S12.2 kmh S 10.1 mph16.3 kmh 30.29 in1025.7 mb 0.00 in0.0 mm 0.00 in0.0 mm 0.00 in0.0 mm
11:53 AM 60.1°F15.6°C 49.8°F9.9°C 69% 5.4 mph S8.7 kmh S 10.1 mph16.3 kmh 30.30 in1026.1 mb 0.00 in0.0 mm 0.00 in0.0 mm 0.00 in0.0 mm
11:38 AM 60.4°F15.8°C 50.5°F10.3°C 70% 8.5 mph S13.7 kmh S 10.1 mph16.3 kmh 30.29 in1025.7 mb 0.00 in0.0 mm 0.00 in0.0 mm 0.00 in0.0 mm
11:23 AM 60.8°F16.0°C 50.5°F10.3°C 69% 2.2 mph SE3.5 kmh SE 12.5 mph20.1 kmh 30.30 in1026.1 mb 0.00 in0.0 mm 0.00 in0.0 mm 0.00 in0.0 mm
11:08 AM 61.0°F16.1°C 48.7°F9.3°C 64% 2.5 mph S4.0 kmh S 10.1 mph16.3 kmh 30.30 in1026.1 mb 0.00 in0.0 mm 0.00 in0.0 mm 0.00 in0.0 mm
10:53 AM 61.0°F16.1°C 48.7°F9.3°C 64% 3.4 mph SSE5.5 kmh SSE 10.1 mph16.3 kmh 30.30 in1026.1 mb 0.00 in0.0 mm 0.00 in0.0 mm 0.00 in0.0 mm
10:38 AM 60.8°F16.0°C 48.2°F9.0°C 63% 2.5 mph S4.0 kmh S 7.6 mph12.2 kmh 30.29 in1025.7 mb 0.00 in0.0 mm 0.00 in0.0 mm 0.00 in0.0 mm
10:23 AM 58.6°F14.8°C 44.8°F7.1°C 60% 2.5 mph S4.0 kmh S 7.6 mph12.2 kmh 30.29 in1025.7 mb 0.00 in0.0 mm 0.00 in0.0 mm 0.00 in0.0 mm
10:07 AM 56.3°F13.5°C 44.6°F7.0°C 65% Calm Calm 4.9 mph7.9 kmh 30.29 in1025.7 mb 0.00 in0.0 mm 0.00 in0.0 mm 0.00 in0.0 mm
09:52 AM 54.5°F12.5°C 45.0°F7.2°C 70% 1.8 mph N2.9 kmh N 4.9 mph7.9 kmh 30.29 in1025.7 mb 0.00 in0.0 mm 0.00 in0.0 mm 0.00 in0.0 mm
09:37 AM 52.5°F11.4°C 44.8°F7.1°C 75% 3.1 mph N5.0 kmh N 4.9 mph7.9 kmh 30.28 in1025.4 mb 0.00 in0.0 mm 0.00 in0.0 mm 0.00 in0.0 mm
09:22 AM 51.3°F10.7°C 43.3°F6.3°C 74% 4.0 mph NNW6.4 kmh NNW 7.6 mph12.2 kmh 30.28 in1025.4 mb 0.00 in0.0 mm 0.00 in0.0 mm 0.00 in0.0 mm
09:07 AM 50.9°F10.5°C 43.9°F6.6°C 77% 4.9 mph NNW7.9 kmh NNW 7.6 mph12.2 kmh 30.28 in1025.4 mb 0.00 in0.0 mm 0.00 in0.0 mm 0.00 in0.0 mm
08:52 AM 51.1°F10.6°C 43.5°F6.4°C 75% 4.7 mph N7.6 kmh N 10.1 mph16.3 kmh 30.28 in1025.4 mb 0.00 in0.0 mm 0.00 in0.0 mm 0.00 in0.0 mm
08:37 AM 50.9°F10.5°C 42.3°F5.7°C 72% 6.5 mph N10.5 kmh N 10.1 mph16.3 kmh 30.27 in1025.1 mb 0.00 in0.0 mm 0.00 in0.0 mm 0.00 in0.0 mm
08:22 AM 50.7°F10.4°C 42.1°F5.6°C 72% 6.0 mph NNW9.7 kmh NNW 10.1 mph16.3 kmh 30.27 in1025.1 mb 0.00 in0.0 mm 0.00 in0.0 mm 0.00 in0.0 mm
08:07 AM 50.5°F10.3°C 41.5°F5.3°C 71% 6.3 mph NNW10.1 kmh NNW 10.1 mph16.3 kmh 30.27 in1025.1 mb 0.00 in0.0 mm 0.00 in0.0 mm 0.00 in0.0 mm
07:52 AM 50.5°F10.3°C 41.2°F5.1°C 70% 6.0 mph NW9.7 kmh NW 7.6 mph12.2 kmh 30.26 in1024.7 mb 0.00 in0.0 mm 0.00 in0.0 mm 0.00 in0.0 mm
07:37 AM 51.1°F10.6°C 41.7°F5.4°C 70% 4.5 mph N7.2 kmh N 10.1 mph16.3 kmh 30.26 in1024.7 mb 0.00 in0.0 mm 0.00 in0.0 mm 0.00 in0.0 mm
07:22 AM 51.3°F10.7°C 40.3°F4.6°C 66% 5.6 mph NNW9.0 kmh NNW 12.5 mph20.1 kmh 30.24 in1024.0 mb 0.00 in0.0 mm 0.00 in0.0 mm 0.00 in0.0 mm
07:07 AM 50.9°F10.5°C 40.3°F4.6°C 67% 7.8 mph NNW12.6 kmh NNW 10.1 mph16.3 kmh 30.24 in1024.0 mb 0.00 in0.0 mm 0.00 in0.0 mm 0.00 in0.0 mm
06:52 AM 50.7°F10.4°C 41.0°F5.0°C 69% 7.2 mph NNW11.6 kmh NNW 12.5 mph20.1 kmh 30.24 in1024.0 mb 0.00 in0.0 mm 0.00 in0.0 mm 0.00 in0.0 mm
06:37 AM 50.7°F10.4°C 42.1°F5.6°C 72% 7.8 mph NNW12.6 kmh NNW 12.5 mph20.1 kmh 30.24 in1024.0 mb 0.00 in0.0 mm 0.00 in0.0 mm 0.00 in0.0 mm
06:21 AM 50.7°F10.4°C 41.0°F5.0°C 69% 9.4 mph NNW15.1 kmh NNW 12.5 mph20.1 kmh 30.23 in1023.7 mb 0.00 in0.0 mm 0.00 in0.0 mm 0.00 in0.0 mm
06:06 AM 50.7°F10.4°C 41.4°F5.2°C 70% 7.6 mph N12.2 kmh N 12.5 mph20.1 kmh 30.23 in1023.7 mb 0.00 in0.0 mm 0.00 in0.0 mm 0.00 in0.0 mm
05:51 AM 51.1°F10.6°C 41.7°F5.4°C 70% 6.3 mph NW10.1 kmh NW 10.1 mph16.3 kmh 30.22 in1023.4 mb 0.00 in0.0 mm 0.00 in0.0 mm 0.00 in0.0 mm
05:36 AM 51.1°F10.6°C 40.5°F4.7°C 67% 7.8 mph NW12.6 kmh NW 12.5 mph20.1 kmh 30.23 in1023.7 mb 0.00 in0.0 mm 0.00 in0.0 mm 0.00 in0.0 mm
05:21 AM 51.1°F10.6°C 40.8°F4.9°C 68% 5.6 mph N9.0 kmh N 10.1 mph16.3 kmh 30.23 in1023.7 mb 0.00 in0.0 mm 0.00 in0.0 mm 0.00 in0.0 mm
05:06 AM 51.3°F10.7°C 41.0°F5.0°C 68% 6.3 mph NNW10.1 kmh NNW 10.1 mph16.3 kmh 30.23 in1023.7 mb 0.00 in0.0 mm 0.00 in0.0 mm 0.00 in0.0 mm
04:51 AM 51.3°F10.7°C 41.4°F5.2°C 69% 7.6 mph NNW12.2 kmh NNW 12.5 mph20.1 kmh 30.23 in1023.7 mb 0.00 in0.0 mm 0.00 in0.0 mm 0.00 in0.0 mm
04:36 AM 51.6°F10.9°C 41.7°F5.4°C 69% 6.0 mph N9.7 kmh N 10.1 mph16.3 kmh 30.23 in1023.7 mb 0.00 in0.0 mm 0.00 in0.0 mm 0.00 in0.0 mm
04:21 AM 51.4°F10.8°C 41.5°F5.3°C 69% 7.6 mph NNW12.2 kmh NNW 12.5 mph20.1 kmh 30.24 in1024.0 mb 0.00 in0.0 mm 0.00 in0.0 mm 0.00 in0.0 mm
04:06 AM 51.4°F10.8°C 42.8°F6.0°C 72% 6.9 mph NNW11.1 kmh NNW 10.1 mph16.3 kmh 30.23 in1023.7 mb 0.00 in0.0 mm 0.00 in0.0 mm 0.00 in0.0 mm
03:51 AM 51.6°F10.9°C 43.3°F6.3°C 73% 6.9 mph NNW11.1 kmh NNW 10.1 mph16.3 kmh 30.23 in1023.7 mb 0.00 in0.0 mm 0.00 in0.0 mm 0.00 in0.0 mm
03:36 AM 51.6°F10.9°C 43.3°F6.3°C 73% 8.1 mph NNW13.0 kmh NNW 10.1 mph16.3 kmh 30.24 in1024.0 mb 0.00 in0.0 mm 0.00 in0.0 mm 0.00 in0.0 mm
03:21 AM 51.4°F10.8°C 43.2°F6.2°C 73% 7.6 mph N12.2 kmh N 10.1 mph16.3 kmh 30.24 in1024.0 mb 0.00 in0.0 mm 0.00 in0.0 mm 0.00 in0.0 mm
03:06 AM 51.4°F10.8°C 43.5°F6.4°C 74% 7.2 mph NNW11.6 kmh NNW 10.1 mph16.3 kmh 30.24 in1024.0 mb 0.00 in0.0 mm 0.00 in0.0 mm 0.00 in0.0 mm
02:50 AM 51.4°F10.8°C 43.2°F6.2°C 73% 4.9 mph NNW7.9 kmh NNW 12.5 mph20.1 kmh 30.24 in1024.0 mb 0.00 in0.0 mm 0.00 in0.0 mm 0.00 in0.0 mm
02:35 AM 51.6°F10.9°C 43.3°F6.3°C 73% 7.8 mph NNW12.6 kmh NNW 12.5 mph20.1 kmh 30.24 in1024.0 mb 0.00 in0.0 mm 0.00 in0.0 mm 0.00 in0.0 mm
02:20 AM 51.8°F11.0°C 43.7°F6.5°C 74% 6.9 mph NNW11.1 kmh NNW 12.5 mph20.1 kmh 30.24 in1024.0 mb 0.00 in0.0 mm 0.00 in0.0 mm 0.00 in0.0 mm
02:05 AM 51.8°F11.0°C 43.7°F6.5°C 74% 7.8 mph NNW12.6 kmh NNW 12.5 mph20.1 kmh 30.24 in1024.0 mb 0.00 in0.0 mm 0.00 in0.0 mm 0.00 in0.0 mm
01:50 AM 51.6°F10.9°C 43.5°F6.4°C 74% 7.6 mph NNW12.2 kmh NNW 12.5 mph20.1 kmh 30.24 in1024.0 mb 0.00 in0.0 mm 0.00 in0.0 mm 0.00 in0.0 mm
01:35 AM 51.6°F10.9°C 43.3°F6.3°C 73% 6.9 mph NW11.1 kmh NW 12.5 mph20.1 kmh 30.24 in1024.0 mb 0.00 in0.0 mm 0.00 in0.0 mm 0.00 in0.0 mm
01:20 AM 51.8°F11.0°C 44.1°F6.7°C 75% 6.9 mph N11.1 kmh N 10.1 mph16.3 kmh 30.24 in1024.0 mb 0.00 in0.0 mm 0.00 in0.0 mm 0.00 in0.0 mm
01:05 AM 52.3°F11.3°C 45.0°F7.2°C 76% 6.0 mph NW9.7 kmh NW 10.1 mph16.3 kmh 30.24 in1024.0 mb 0.00 in0.0 mm 0.00 in0.0 mm 0.00 in0.0 mm
12:50 AM 52.7°F11.5°C 45.7°F7.6°C 77% 4.7 mph NNW7.6 kmh NNW 7.6 mph12.2 kmh 30.25 in1024.4 mb 0.00 in0.0 mm 0.00 in0.0 mm 0.00 in0.0 mm
12:35 AM 53.1°F11.7°C 46.4°F8.0°C 78% 2.2 mph NNW3.5 kmh NNW 7.6 mph12.2 kmh 30.25 in1024.4 mb 0.00 in0.0 mm 0.00 in0.0 mm 0.00 in0.0 mm
12:20 AM 53.2°F11.8°C 48.2°F9.0°C 83% 1.3 mph NNW2.1 kmh NNW 7.6 mph12.2 kmh 30.25 in1024.4 mb 0.00 in0.0 mm 0.00 in0.0 mm 0.00 in0.0 mm
12:05 AM 53.2°F11.8°C 47.8°F8.8°C 82% 4.5 mph NNW7.2 kmh NNW 7.6 mph12.2 kmh 30.25 in1024.4 mb 0.00 in0.0 mm 0.00 in0.0 mm 0.00 in0.0 mm